Time;durP1;ratioP1;P1;durP2;ratioP2;P2;SDS_P1;SDS_P2;PMS_P1;PMS_P2;Temp;Humidity;BMP_temperature;BMP_pressure;BME280_temperature;BME280_humidity;BME280_pressure;Samples;Min_cycle;Max_cycle;Signal;HPM_P1;HPM_P2
2022/01/16 00:05:42;;;;;;;;;;;15.20;34.60;;;;;;8334974;28;20317;-48
2022/01/16 00:09:43;;;;;;;;;;;15.20;34.60;;;;;;8334385;28;19921;-48
2022/01/16 00:13:43;;;;;;;;;;;15.20;34.60;;;;;;8333519;28;19931;-48
2022/01/16 00:17:56;;;;;;;;;;;15.20;34.50;;;;;;8333950;28;19920;-47
2022/01/16 00:21:58;;;;;;;;;;;15.20;34.60;;;;;;8333419;28;19917;-48
2022/01/16 00:25:58;;;;;;;;;;;15.20;34.50;;;;;;8333645;28;19913;-48
2022/01/16 00:29:59;;;;;;;;;;;15.20;34.50;;;;;;8333713;28;19917;-47
2022/01/16 00:33:59;;;;;;;;;;;15.20;34.50;;;;;;8332967;28;19921;-49
2022/01/16 00:38:00;;;;;;;;;;;15.20;34.50;;;;;;8333337;28;19924;-47
2022/01/16 00:42:00;;;;;;;;;;;15.20;34.50;;;;;;8333187;28;19917;-48
2022/01/16 00:46:00;;;;;;;;;;;15.20;34.50;;;;;;8332813;28;19924;-48
2022/01/16 00:50:01;;;;;;;;;;;15.20;34.50;;;;;;8333120;28;19921;-50
2022/01/16 00:54:02;;;;;;;;;;;15.30;34.60;;;;;;8332907;28;20397;-47
2022/01/16 00:58:02;;;;;;;;;;;15.20;34.50;;;;;;8332885;28;19914;-47
2022/01/16 01:02:03;;;;;;;;;;;15.20;34.50;;;;;;8332677;28;19913;-49
2022/01/16 01:06:03;;;;;;;;;;;15.20;34.50;;;;;;8332947;28;19921;-48
2022/01/16 01:10:04;;;;;;;;;;;15.20;34.50;;;;;;8332055;28;19917;-47
2022/01/16 01:14:19;;;;;;;;;;;15.20;34.50;;;;;;8331712;28;20020;-48
2022/01/16 01:18:20;;;;;;;;;;;15.20;34.50;;;;;;8336264;28;20385;-49
2022/01/16 01:22:20;;;;;;;;;;;15.20;34.50;;;;;;8331523;28;19917;-48
2022/01/16 01:26:26;;;;;;;;;;;15.20;34.50;;;;;;8331990;28;20374;-47
2022/01/16 01:30:27;;;;;;;;;;;15.20;34.50;;;;;;8335629;28;19940;-48
2022/01/16 01:34:28;;;;;;;;;;;15.20;34.50;;;;;;8331106;28;19929;-47
2022/01/16 01:38:28;;;;;;;;;;;15.20;34.50;;;;;;8331793;28;19921;-50
2022/01/16 01:42:35;;;;;;;;;;;15.20;34.50;;;;;;8331448;28;20392;-47
2022/01/16 01:51:02;;;;;;;;;;;15.20;34.50;;;;;;8334004;28;19928;-48
2022/01/16 01:55:03;;;;;;;;;;;15.20;34.50;;;;;;8330543;28;19925;-47
2022/01/16 01:59:04;;;;;;;;;;;15.20;34.50;;;;;;8331009;28;19971;-48
2022/01/16 02:07:05;;;;;;;;;;;15.20;34.50;;;;;;8330574;28;19925;-47
2022/01/16 02:11:05;;;;;;;;;;;15.20;34.50;;;;;;8330835;28;19920;-47
2022/01/16 02:15:31;;;;;;;;;;;15.20;34.50;;;;;;8330506;28;19932;-47
2022/01/16 02:36:48;;;;;;;;;;;15.20;34.50;;;;;;8333320;28;19916;-47
2022/01/16 02:40:50;;;;;;;;;;;15.20;34.50;;;;;;8363210;28;19917;-50
2022/01/16 02:45:01;;;;;;;;;;;15.20;34.50;;;;;;8363159;28;19921;-47
2022/01/16 02:49:01;;;;;;;;;;;15.20;34.50;;;;;;8364460;28;20415;-50
2022/01/16 02:53:09;;;;;;;;;;;15.20;34.50;;;;;;8362752;28;19978;-46
2022/01/16 02:57:11;;;;;;;;;;;15.20;34.50;;;;;;8366021;28;19917;-48
2022/01/16 03:01:12;;;;;;;;;;;15.20;34.50;;;;;;8362461;28;20374;-49
2022/01/16 03:05:13;;;;;;;;;;;15.20;34.50;;;;;;8362949;28;19963;-47
2022/01/16 03:09:14;;;;;;;;;;;15.20;34.40;;;;;;8362863;28;19920;-46
2022/01/16 03:13:15;;;;;;;;;;;15.20;34.50;;;;;;8362078;28;20080;-47
2022/01/16 03:17:35;;;;;;;;;;;15.20;34.50;;;;;;8362352;28;19919;-46
2022/01/16 03:21:54;;;;;;;;;;;15.20;34.40;;;;;;8365867;28;19913;-47
2022/01/16 03:25:55;;;;;;;;;;;15.20;34.50;;;;;;8362151;28;19923;-46
2022/01/16 03:29:57;;;;;;;;;;;15.20;34.50;;;;;;8362277;28;19916;-47
2022/01/16 03:33:58;;;;;;;;;;;15.20;34.40;;;;;;8361974;28;19976;-48
2022/01/16 03:37:58;;;;;;;;;;;15.20;34.40;;;;;;8368650;28;19916;-47
2022/01/16 03:42:00;;;;;;;;;;;15.20;34.40;;;;;;8368373;28;19920;-48
2022/01/16 03:46:01;;;;;;;;;;;15.20;34.40;;;;;;8367719;28;20297;-47
2022/01/16 03:50:02;;;;;;;;;;;15.20;34.40;;;;;;8368211;28;19920;-47
2022/01/16 03:54:04;;;;;;;;;;;15.20;34.40;;;;;;8367812;28;20017;-48
2022/01/16 03:58:05;;;;;;;;;;;15.20;34.40;;;;;;8367212;28;19924;-49
2022/01/16 04:02:05;;;;;;;;;;;15.20;34.50;;;;;;8368081;28;20011;-48
2022/01/16 04:06:05;;;;;;;;;;;15.20;34.50;;;;;;8367314;28;20393;-48
2022/01/16 04:10:08;;;;;;;;;;;15.20;34.50;;;;;;8367005;28;19917;-47
2022/01/16 04:14:16;;;;;;;;;;;15.20;34.50;;;;;;8367448;28;19928;-48
2022/01/16 04:18:16;;;;;;;;;;;15.20;34.50;;;;;;8367121;28;19956;-48
2022/01/16 04:22:17;;;;;;;;;;;15.20;34.50;;;;;;8366720;28;19917;-48
2022/01/16 04:26:18;;;;;;;;;;;15.30;34.50;;;;;;8366757;28;19921;-48
2022/01/16 04:30:18;;;;;;;;;;;15.30;34.50;;;;;;8366841;28;19924;-48
2022/01/16 04:34:19;;;;;;;;;;;15.30;34.50;;;;;;8366079;28;19924;-48
2022/01/16 04:38:19;;;;;;;;;;;15.30;35.00;;;;;;8366690;28;19949;-48
2022/01/16 04:46:39;;;;;;;;;;;15.30;34.50;;;;;;8365117;28;20328;-47
2022/01/16 04:50:39;;;;;;;;;;;15.30;34.50;;;;;;8366136;28;19921;-48
2022/01/16 04:54:40;;;;;;;;;;;15.30;34.50;;;;;;8365946;28;19996;-48
2022/01/16 04:58:41;;;;;;;;;;;15.30;34.50;;;;;;8365409;28;19970;-48
2022/01/16 05:02:41;;;;;;;;;;;15.30;34.50;;;;;;8365948;28;20615;-48
2022/01/16 05:06:42;;;;;;;;;;;15.30;34.50;;;;;;8364334;28;19970;-48
2022/01/16 05:10:42;;;;;;;;;;;15.30;34.50;;;;;;8364885;28;19920;-49
2022/01/16 05:19:03;;;;;;;;;;;15.30;34.50;;;;;;8364945;28;19924;-49
2022/01/16 05:23:04;;;;;;;;;;;15.30;34.50;;;;;;8365686;28;19924;-48
2022/01/16 05:27:06;;;;;;;;;;;15.30;34.50;;;;;;8365199;28;19913;-50
2022/01/16 05:31:07;;;;;;;;;;;15.20;34.40;;;;;;8364338;28;19917;-49
2022/01/16 05:35:08;;;;;;;;;;;15.20;34.50;;;;;;8364833;28;19983;-49
2022/01/16 05:39:08;;;;;;;;;;;15.10;34.40;;;;;;8364511;28;19925;-49
2022/01/16 05:43:09;;;;;;;;;;;15.20;34.50;;;;;;8363914;28;19921;-49
2022/01/16 05:47:12;;;;;;;;;;;15.20;34.50;;;;;;8364808;28;19960;-48
2022/01/16 05:51:13;;;;;;;;;;;15.20;34.50;;;;;;8364167;28;19924;-49
2022/01/16 05:55:14;;;;;;;;;;;15.20;34.50;;;;;;8363371;28;20062;-48
2022/01/16 05:59:14;;;;;;;;;;;15.20;34.50;;;;;;8364132;28;20347;-49
2022/01/16 06:03:15;;;;;;;;;;;15.10;34.40;;;;;;8363694;28;19917;-48
2022/01/16 06:07:15;;;;;;;;;;;15.10;34.50;;;;;;8363532;28;19917;-48
2022/01/16 06:11:16;;;;;;;;;;;15.10;34.50;;;;;;8363668;28;19921;-48
2022/01/16 06:15:17;;;;;;;;;;;15.10;34.40;;;;;;8363502;28;20381;-49
2022/01/16 06:19:18;;;;;;;;;;;15.10;34.40;;;;;;8363030;28;20374;-48
2022/01/16 06:23:19;;;;;;;;;;;15.10;34.40;;;;;;8363735;28;19913;-49
2022/01/16 06:27:19;;;;;;;;;;;15.10;34.50;;;;;;8363133;28;19971;-49
2022/01/16 06:31:20;;;;;;;;;;;15.10;34.50;;;;;;8362549;28;19928;-47
2022/01/16 06:35:20;;;;;;;;;;;15.10;34.50;;;;;;8362916;28;19953;-47
2022/01/16 06:39:21;;;;;;;;;;;15.10;34.50;;;;;;8363092;28;19913;-49
2022/01/16 06:43:22;;;;;;;;;;;15.10;34.50;;;;;;8363033;28;20348;-48
2022/01/16 06:47:22;;;;;;;;;;;15.10;34.50;;;;;;8362944;28;19978;-50
2022/01/16 06:51:24;;;;;;;;;;;15.20;34.50;;;;;;8362987;28;19920;-48
2022/01/16 06:55:24;;;;;;;;;;;15.20;34.50;;;;;;8362314;28;19925;-47
2022/01/16 06:59:25;;;;;;;;;;;15.20;34.30;;;;;;8362842;28;19919;-47
2022/01/16 07:03:25;;;;;;;;;;;15.20;34.40;;;;;;8363049;28;19924;-47
2022/01/16 07:07:26;;;;;;;;;;;15.20;34.30;;;;;;8362279;28;19923;-47
2022/01/16 07:11:26;;;;;;;;;;;15.20;34.30;;;;;;8366800;28;20344;-47
2022/01/16 07:15:27;;;;;;;;;;;15.20;34.30;;;;;;8368923;28;19952;-47
2022/01/16 07:19:27;;;;;;;;;;;15.30;34.30;;;;;;8368508;28;20385;-47
2022/01/16 07:23:28;;;;;;;;;;;15.30;34.30;;;;;;8369015;28;20363;-47
2022/01/16 07:27:28;;;;;;;;;;;15.30;34.40;;;;;;8368525;28;19917;-47
2022/01/16 07:31:28;;;;;;;;;;;15.30;34.40;;;;;;8368017;28;19924;-46
2022/01/16 07:35:29;;;;;;;;;;;15.30;34.40;;;;;;8368338;28;19921;-46
2022/01/16 07:39:30;;;;;;;;;;;15.30;34.40;;;;;;8368341;28;20436;-48
2022/01/16 07:43:30;;;;;;;;;;;15.20;34.30;;;;;;8368104;28;19967;-48
2022/01/16 07:47:31;;;;;;;;;;;15.30;34.40;;;;;;8368049;28;20011;-47
2022/01/16 07:51:32;;;;;;;;;;;15.30;34.40;;;;;;8368009;28;20305;-48
2022/01/16 07:55:32;;;;;;;;;;;15.30;34.40;;;;;;8367089;28;20488;-48
2022/01/16 07:59:33;;;;;;;;;;;15.20;34.40;;;;;;8367868;28;19917;-49
2022/01/16 08:03:33;;;;;;;;;;;15.20;34.30;;;;;;8367909;28;19913;-49
2022/01/16 08:07:34;;;;;;;;;;;15.20;34.40;;;;;;8352734;28;19919;-49
2022/01/16 08:11:34;;;;;;;;;;;15.20;34.40;;;;;;8355190;28;19916;-49
2022/01/16 08:15:35;;;;;;;;;;;15.20;34.40;;;;;;8367264;28;19925;-47
2022/01/16 08:19:35;;;;;;;;;;;15.20;35.00;;;;;;8366593;28;19917;-48
2022/01/16 08:23:36;;;;;;;;;;;15.20;34.40;;;;;;8367511;28;20007;-48
2022/01/16 08:27:36;;;;;;;;;;;15.20;34.40;;;;;;8367051;28;19963;-48
2022/01/16 08:31:37;;;;;;;;;;;15.10;34.40;;;;;;8366220;28;19923;-48
2022/01/16 08:35:37;;;;;;;;;;;15.20;34.50;;;;;;8366431;28;19937;-49
2022/01/16 08:39:38;;;;;;;;;;;15.10;34.40;;;;;;8366319;28;20030;-48
2022/01/16 08:43:38;;;;;;;;;;;15.10;34.40;;;;;;8366134;28;19916;-48
2022/01/16 08:47:39;;;;;;;;;;;15.20;34.50;;;;;;8366231;28;19920;-48
2022/01/16 08:51:39;;;;;;;;;;;15.20;34.50;;;;;;8366178;28;19924;-50
2022/01/16 08:55:40;;;;;;;;;;;15.10;34.40;;;;;;8365360;28;20406;-49
2022/01/16 08:59:40;;;;;;;;;;;15.10;34.40;;;;;;8347953;28;19966;-49
2022/01/16 09:03:41;;;;;;;;;;;15.10;34.40;;;;;;8366023;28;19967;-48
2022/01/16 09:07:41;;;;;;;;;;;15.20;34.50;;;;;;8365032;28;19994;-48
2022/01/16 09:11:41;;;;;;;;;;;15.10;34.40;;;;;;8365607;28;20388;-48
2022/01/16 09:15:47;;;;;;;;;;;15.10;34.50;;;;;;8364997;28;19925;-48
2022/01/16 09:19:48;;;;;;;;;;;15.10;34.50;;;;;;8332082;28;19921;-48
2022/01/16 09:23:49;;;;;;;;;;;15.10;34.50;;;;;;8332404;28;19967;-48
2022/01/16 09:27:50;;;;;;;;;;;15.10;34.50;;;;;;8331648;28;19936;-47
2022/01/16 09:31:50;;;;;;;;;;;15.20;34.50;;;;;;8331543;28;20389;-48
2022/01/16 09:35:51;;;;;;;;;;;15.10;34.50;;;;;;8331578;28;20012;-47
2022/01/16 09:39:54;;;;;;;;;;;15.20;34.50;;;;;;8331088;28;19917;-49
2022/01/16 09:43:54;;;;;;;;;;;15.20;34.50;;;;;;8331992;28;19913;-48
2022/01/16 09:47:55;;;;;;;;;;;15.20;34.50;;;;;;8331186;28;19917;-49
2022/01/16 09:51:56;;;;;;;;;;;15.20;34.50;;;;;;8330632;28;19921;-48
2022/01/16 09:55:56;;;;;;;;;;;15.20;34.50;;;;;;8331028;28;20352;-49
2022/01/16 09:59:57;;;;;;;;;;;15.20;34.50;;;;;;8331015;28;19913;-48
2022/01/16 10:03:58;;;;;;;;;;;15.20;34.50;;;;;;8330871;28;20007;-48
2022/01/16 10:08:00;;;;;;;;;;;15.20;34.60;;;;;;8330851;28;19921;-49
2022/01/16 10:12:03;;;;;;;;;;;15.20;34.60;;;;;;8330758;28;20374;-49
2022/01/16 10:16:03;;;;;;;;;;;15.20;34.60;;;;;;8330224;28;20310;-48
2022/01/16 10:20:05;;;;;;;;;;;15.20;34.60;;;;;;8330693;28;19913;-47
2022/01/16 10:24:22;;;;;;;;;;;15.20;34.60;;;;;;8330770;28;19975;-50
2022/01/16 10:28:23;;;;;;;;;;;15.20;34.60;;;;;;8330059;28;20382;-48
2022/01/16 10:32:31;;;;;;;;;;;15.20;34.60;;;;;;8330090;28;19917;-46
2022/01/16 10:36:36;;;;;;;;;;;15.20;34.60;;;;;;8330316;28;20337;-49
2022/01/16 10:40:38;;;;;;;;;;;15.20;34.60;;;;;;8329722;28;20004;-50
2022/01/16 10:44:38;;;;;;;;;;;15.30;34.60;;;;;;8331514;28;19917;-49
2022/01/16 10:48:39;;;;;;;;;;;15.20;34.50;;;;;;8336785;28;20355;-50
2022/01/16 10:52:58;;;;;;;;;;;15.20;34.60;;;;;;8336103;28;19917;-48
2022/01/16 10:57:16;;;;;;;;;;;15.30;34.60;;;;;;8336723;28;19961;-47
2022/01/16 11:01:18;;;;;;;;;;;15.20;34.50;;;;;;8336047;28;19924;-47
2022/01/16 11:05:20;;;;;;;;;;;15.30;34.60;;;;;;8336184;28;19924;-50
2022/01/16 11:09:27;;;;;;;;;;;15.30;34.60;;;;;;8324601;28;20000;-47
2022/01/16 11:13:32;;;;;;;;;;;15.30;34.60;;;;;;8329153;28;19929;-47
2022/01/16 11:17:33;;;;;;;;;;;15.30;34.60;;;;;;8336159;28;19924;-48
2022/01/16 11:21:35;;;;;;;;;;;15.30;34.60;;;;;;8335755;28;19956;-48
2022/01/16 11:25:36;;;;;;;;;;;15.30;34.70;;;;;;8335176;28;19913;-50
2022/01/16 11:29:36;;;;;;;;;;;15.30;34.60;;;;;;8335888;28;19996;-48
2022/01/16 11:33:38;;;;;;;;;;;15.30;34.70;;;;;;8335290;28;19925;-50
2022/01/16 11:37:38;;;;;;;;;;;15.30;34.60;;;;;;8334804;28;20306;-47
2022/01/16 11:41:51;;;;;;;;;;;15.30;34.60;;;;;;8335008;28;19924;-49
2022/01/16 11:45:55;;;;;;;;;;;15.30;34.60;;;;;;8334437;28;19921;-49
2022/01/16 11:50:05;;;;;;;;;;;15.40;34.60;;;;;;8335064;28;19928;-53
2022/01/16 11:54:06;;;;;;;;;;;15.40;34.60;;;;;;8334982;28;19986;-48
2022/01/16 11:58:06;;;;;;;;;;;15.40;34.60;;;;;;8332545;28;19971;-47
2022/01/16 12:02:07;;;;;;;;;;;15.40;34.50;;;;;;8334588;28;20008;-51
2022/01/16 12:06:26;;;;;;;;;;;15.40;34.50;;;;;;8334400;28;19914;-52
2022/01/16 12:10:37;;;;;;;;;;;15.40;34.60;;;;;;8333535;28;20389;-48
2022/01/16 12:14:53;;;;;;;;;;;15.40;34.50;;;;;;8334856;28;20386;-52
2022/01/16 12:18:54;;;;;;;;;;;15.40;34.40;;;;;;8334395;28;19917;-52
2022/01/16 12:23:03;;;;;;;;;;;15.40;34.40;;;;;;8334395;28;19971;-52
2022/01/16 12:27:22;;;;;;;;;;;15.40;34.40;;;;;;8334116;28;20347;-49
2022/01/16 12:31:34;;;;;;;;;;;15.40;34.30;;;;;;8333104;28;19987;-51
2022/01/16 12:35:41;;;;;;;;;;;15.50;34.40;;;;;;8333673;28;19921;-52
2022/01/16 12:39:42;;;;;;;;;;;15.40;34.30;;;;;;8333414;28;19925;-49
2022/01/16 12:43:48;;;;;;;;;;;15.40;34.30;;;;;;8332905;28;19964;-48
2022/01/16 12:47:49;;;;;;;;;;;15.40;34.20;;;;;;8333481;28;19918;-48
2022/01/16 12:51:51;;;;;;;;;;;15.40;34.20;;;;;;8332803;28;19921;-49
2022/01/16 12:55:51;;;;;;;;;;;15.50;34.70;;;;;;8333063;28;19921;-50
2022/01/16 12:59:52;;;;;;;;;;;15.50;34.20;;;;;;8332654;28;19980;-48
2022/01/16 13:03:52;;;;;;;;;;;15.50;34.10;;;;;;8332288;28;19924;-48
2022/01/16 13:07:59;;;;;;;;;;;15.50;34.10;;;;;;8331896;28;19923;-50
2022/01/16 13:12:00;;;;;;;;;;;15.50;34.10;;;;;;8332537;28;19917;-49
2022/01/16 13:16:15;;;;;;;;;;;15.50;34.10;;;;;;8331965;28;19921;-49
2022/01/16 13:20:21;;;;;;;;;;;15.50;34.10;;;;;;8332625;28;20338;-48
2022/01/16 13:24:22;;;;;;;;;;;15.50;34.10;;;;;;8335839;28;19921;-48
2022/01/16 13:28:29;;;;;;;;;;;15.50;34.10;;;;;;8331797;28;19963;-47
2022/01/16 13:32:30;;;;;;;;;;;15.50;34.00;;;;;;8331714;28;19917;-50
2022/01/16 13:36:31;;;;;;;;;;;15.50;34.00;;;;;;8331570;28;19921;-50
2022/01/16 13:40:31;;;;;;;;;;;15.50;34.00;;;;;;8331411;28;19913;-51
2022/01/16 13:44:32;;;;;;;;;;;15.50;34.00;;;;;;8331666;28;19917;-47
2022/01/16 13:48:32;;;;;;;;;;;15.50;34.00;;;;;;8331479;28;19921;-49
2022/01/16 13:52:33;;;;;;;;;;;15.50;34.00;;;;;;8330588;28;19917;-49
2022/01/16 13:56:35;;;;;;;;;;;15.50;34.00;;;;;;8331010;28;20016;-48
2022/01/16 14:00:37;;;;;;;;;;;15.50;34.00;;;;;;8330404;28;22357;-50
2022/01/16 14:04:38;;;;;;;;;;;15.50;34.00;;;;;;8330521;28;19917;-50
2022/01/16 14:08:39;;;;;;;;;;;15.50;34.00;;;;;;8318171;28;19921;-50
2022/01/16 14:12:53;;;;;;;;;;;15.60;34.10;;;;;;8330490;28;20202;-51
2022/01/16 14:25:27;;;;;;;;;;;15.60;34.00;;;;;;8314502;28;20285;-49
2022/01/16 14:29:28;;;;;;;;;;;15.60;34.00;;;;;;8330267;28;19943;-49
2022/01/16 14:33:29;;;;;;;;;;;15.60;34.00;;;;;;8330042;28;20349;-49
2022/01/16 14:37:31;;;;;;;;;;;15.60;34.00;;;;;;8329670;28;20399;-49
2022/01/16 14:41:33;;;;;;;;;;;15.60;33.90;;;;;;8330360;28;20394;-50
2022/01/16 14:45:33;;;;;;;;;;;15.60;34.00;;;;;;8330129;28;19917;-49
2022/01/16 14:49:34;;;;;;;;;;;15.60;34.00;;;;;;8329911;28;19975;-49
2022/01/16 14:53:37;;;;;;;;;;;15.60;34.00;;;;;;8329805;28;19929;-47
2022/01/16 14:57:37;;;;;;;;;;;15.60;34.00;;;;;;8329858;28;19971;-48
2022/01/16 15:01:38;;;;;;;;;;;15.60;33.90;;;;;;8329307;28;19917;-52
2022/01/16 15:05:38;;;;;;;;;;;15.60;34.00;;;;;;8329616;28;19983;-52
2022/01/16 15:09:39;;;;;;;;;;;15.60;33.90;;;;;;8329623;28;19994;-47
2022/01/16 15:13:39;;;;;;;;;;;15.60;33.90;;;;;;8329113;28;19931;-48
2022/01/16 15:17:44;;;;;;;;;;;15.60;33.90;;;;;;8329633;28;19918;-52
2022/01/16 15:21:53;;;;;;;;;;;15.60;33.90;;;;;;8329666;28;20352;-48
2022/01/16 15:25:56;;;;;;;;;;;15.60;33.90;;;;;;8362316;28;19932;-49
2022/01/16 15:29:56;;;;;;;;;;;15.60;34.00;;;;;;8362301;28;19978;-52
2022/01/16 15:33:57;;;;;;;;;;;15.60;34.00;;;;;;8367953;28;19970;-48
2022/01/16 15:37:57;;;;;;;;;;;15.60;34.00;;;;;;8368374;28;19924;-48
2022/01/16 15:41:57;;;;;;;;;;;15.60;33.90;;;;;;8368276;28;19992;-48
2022/01/16 15:45:59;;;;;;;;;;;15.60;34.00;;;;;;8367492;28;20328;-49
2022/01/16 15:49:59;;;;;;;;;;;15.60;33.90;;;;;;8368080;28;19970;-48
2022/01/16 15:53:59;;;;;;;;;;;15.60;33.90;;;;;;8367803;28;20326;-48
2022/01/16 15:58:00;;;;;;;;;;;15.60;33.90;;;;;;8367161;28;19940;-49
2022/01/16 16:02:01;;;;;;;;;;;15.60;33.90;;;;;;8367773;28;19913;-48
2022/01/16 16:06:01;;;;;;;;;;;15.60;33.90;;;;;;8367484;28;20417;-49
2022/01/16 16:10:02;;;;;;;;;;;15.50;33.90;;;;;;8366878;28;20374;-49
2022/01/16 16:14:02;;;;;;;;;;;15.50;33.90;;;;;;8367294;28;20020;-48
2022/01/16 16:18:03;;;;;;;;;;;15.50;33.90;;;;;;8366955;28;19920;-53
2022/01/16 16:22:03;;;;;;;;;;;15.50;33.90;;;;;;8366540;28;19924;-52
2022/01/16 16:26:04;;;;;;;;;;;15.50;33.90;;;;;;8366677;28;19917;-49
2022/01/16 16:30:06;;;;;;;;;;;15.50;33.80;;;;;;8366841;28;20294;-49
2022/01/16 16:34:06;;;;;;;;;;;15.50;33.80;;;;;;8366021;28;20023;-48
2022/01/16 16:38:07;;;;;;;;;;;15.50;33.80;;;;;;8366420;28;19912;-48
2022/01/16 16:42:11;;;;;;;;;;;15.50;33.80;;;;;;8365194;28;19917;-50
2022/01/16 16:46:11;;;;;;;;;;;15.50;33.80;;;;;;8365663;28;20381;-49
2022/01/16 16:50:16;;;;;;;;;;;15.50;33.80;;;;;;8366304;28;19921;-49
2022/01/16 16:54:16;;;;;;;;;;;15.50;33.80;;;;;;8365761;28;20157;-50
2022/01/16 16:58:17;;;;;;;;;;;15.50;33.80;;;;;;8365324;28;20435;-50
2022/01/16 17:02:18;;;;;;;;;;;15.50;33.80;;;;;;8365955;28;19916;-52
2022/01/16 17:06:18;;;;;;;;;;;15.50;33.80;;;;;;8353834;28;20379;-49
2022/01/16 17:10:19;;;;;;;;;;;15.50;33.80;;;;;;8354049;28;19916;-49
2022/01/16 17:14:19;;;;;;;;;;;15.50;33.80;;;;;;8365308;28;19932;-49
2022/01/16 17:18:22;;;;;;;;;;;15.50;33.80;;;;;;8365107;28;19920;-51
2022/01/16 17:22:25;;;;;;;;;;;15.50;33.90;;;;;;8364708;28;19924;-48
2022/01/16 17:26:25;;;;;;;;;;;15.50;33.80;;;;;;8365054;28;20285;-51
2022/01/16 17:30:26;;;;;;;;;;;15.50;33.80;;;;;;8364927;28;19919;-49
2022/01/16 17:34:26;;;;;;;;;;;15.50;33.80;;;;;;8364259;28;19948;-50
2022/01/16 17:38:26;;;;;;;;;;;15.50;34.30;;;;;;8364410;28;19991;-49
2022/01/16 17:42:27;;;;;;;;;;;15.50;33.90;;;;;;8364530;28;19924;-49
2022/01/16 17:46:27;;;;;;;;;;;15.50;33.80;;;;;;8363687;28;20370;-51
2022/01/16 17:50:28;;;;;;;;;;;15.50;33.80;;;;;;8363941;28;19924;-49
2022/01/16 17:54:28;;;;;;;;;;;15.50;33.80;;;;;;8363610;28;19929;-52
2022/01/16 17:58:29;;;;;;;;;;;15.50;33.80;;;;;;8363760;28;19925;-50
2022/01/16 18:02:33;;;;;;;;;;;15.50;33.90;;;;;;8364086;28;20362;-47
2022/01/16 18:06:34;;;;;;;;;;;15.50;34.40;;;;;;8363837;28;19920;-47
2022/01/16 18:10:34;;;;;;;;;;;15.50;33.90;;;;;;8363096;28;19963;-47
2022/01/16 18:14:35;;;;;;;;;;;15.50;33.80;;;;;;8363555;28;19928;-49
2022/01/16 18:18:35;;;;;;;;;;;15.50;33.80;;;;;;8363466;28;19916;-48
2022/01/16 18:22:36;;;;;;;;;;;15.50;33.80;;;;;;8362928;28;19989;-48
2022/01/16 18:26:36;;;;;;;;;;;15.50;33.80;;;;;;8363041;28;19977;-51
2022/01/16 18:30:37;;;;;;;;;;;15.50;33.80;;;;;;8363041;28;20235;-49
2022/01/16 18:34:37;;;;;;;;;;;15.50;33.80;;;;;;8362468;28;19968;-49
2022/01/16 18:38:38;;;;;;;;;;;15.50;33.80;;;;;;8363074;28;19913;-51
2022/01/16 18:42:38;;;;;;;;;;;15.50;33.80;;;;;;8363020;28;19921;-48
2022/01/16 18:46:39;;;;;;;;;;;15.50;33.80;;;;;;8362394;28;19925;-49
2022/01/16 18:50:40;;;;;;;;;;;15.50;33.80;;;;;;8362722;28;19964;-47
2022/01/16 18:54:41;;;;;;;;;;;15.50;33.80;;;;;;8362768;28;20290;-51
2022/01/16 18:58:42;;;;;;;;;;;15.50;33.70;;;;;;8362198;28;19917;-48
2022/01/16 19:02:42;;;;;;;;;;;15.50;33.80;;;;;;8362664;28;19924;-49
2022/01/16 19:06:42;;;;;;;;;;;15.50;33.80;;;;;;8365973;28;20330;-48
2022/01/16 19:10:43;;;;;;;;;;;15.50;33.80;;;;;;8368449;28;19978;-51
2022/01/16 19:14:46;;;;;;;;;;;15.50;33.80;;;;;;8368734;28;19927;-50
2022/01/16 19:18:46;;;;;;;;;;;15.50;33.70;;;;;;8368842;28;19924;-50
2022/01/16 19:22:47;;;;;;;;;;;15.50;33.80;;;;;;8369163;28;19912;-48
2022/01/16 19:26:47;;;;;;;;;;;15.50;33.80;;;;;;8368803;28;19927;-48
2022/01/16 19:30:48;;;;;;;;;;;15.50;33.80;;;;;;8368134;28;19920;-49
2022/01/16 19:34:50;;;;;;;;;;;15.50;33.80;;;;;;8368644;28;20432;-48
2022/01/16 19:38:50;;;;;;;;;;;15.50;33.70;;;;;;8368498;28;19967;-50
2022/01/16 19:46:57;;;;;;;;;;;15.50;33.70;;;;;;8372189;28;20358;-48
2022/01/16 19:50:58;;;;;;;;;;;15.50;33.70;;;;;;8368124;28;19920;-47
2022/01/16 19:54:58;;;;;;;;;;;15.50;33.80;;;;;;8367083;28;19925;-48
2022/01/16 19:59:00;;;;;;;;;;;15.50;33.70;;;;;;8368014;28;20270;-47
2022/01/16 20:03:00;;;;;;;;;;;15.50;33.70;;;;;;8367931;28;20008;-50
2022/01/16 20:07:01;;;;;;;;;;;15.50;33.70;;;;;;8357137;28;20382;-49
2022/01/16 20:11:02;;;;;;;;;;;15.50;33.70;;;;;;8352212;28;19987;-48
2022/01/16 20:15:03;;;;;;;;;;;15.50;33.70;;;;;;8367318;28;19928;-50
2022/01/16 20:19:04;;;;;;;;;;;15.50;33.80;;;;;;8366439;28;19924;-48
2022/01/16 20:23:06;;;;;;;;;;;15.50;33.70;;;;;;8365886;28;19917;-47
2022/01/16 20:27:06;;;;;;;;;;;15.50;33.70;;;;;;8366795;28;20436;-50
2022/01/16 20:31:07;;;;;;;;;;;15.50;33.70;;;;;;8366344;28;19916;-48
2022/01/16 20:35:08;;;;;;;;;;;15.50;33.70;;;;;;8366502;28;19924;-47
2022/01/16 20:39:08;;;;;;;;;;;15.50;33.70;;;;;;8366834;28;19966;-49
2022/01/16 20:43:09;;;;;;;;;;;15.50;33.70;;;;;;8366120;28;20155;-49
2022/01/16 20:47:10;;;;;;;;;;;15.50;33.70;;;;;;8366442;28;20000;-49
2022/01/16 20:51:11;;;;;;;;;;;15.50;33.70;;;;;;8366041;28;20393;-48
2022/01/16 20:55:11;;;;;;;;;;;15.50;33.70;;;;;;8365614;28;20358;-48
2022/01/16 20:59:12;;;;;;;;;;;15.50;33.70;;;;;;8365827;28;19920;-49
2022/01/16 21:03:12;;;;;;;;;;;15.50;33.70;;;;;;8365795;28;20281;-47
2022/01/16 21:07:13;;;;;;;;;;;15.50;33.70;;;;;;8365051;28;20382;-48
2022/01/16 21:11:15;;;;;;;;;;;15.50;33.70;;;;;;8365641;28;19971;-50
2022/01/16 21:15:16;;;;;;;;;;;15.50;33.70;;;;;;8365275;28;19932;-48
2022/01/16 21:19:17;;;;;;;;;;;15.50;33.80;;;;;;8364999;28;19913;-49
2022/01/16 21:23:20;;;;;;;;;;;15.50;33.80;;;;;;8365230;28;19995;-49
2022/01/16 21:27:21;;;;;;;;;;;15.50;33.80;;;;;;8364947;28;19917;-49
2022/01/16 21:31:22;;;;;;;;;;;15.50;33.80;;;;;;8363936;28;19924;-48
2022/01/16 21:35:23;;;;;;;;;;;15.40;33.70;;;;;;8364644;28;19928;-52
2022/01/16 21:39:23;;;;;;;;;;;15.40;33.70;;;;;;8364858;28;19919;-49
2022/01/16 21:43:23;;;;;;;;;;;15.40;33.70;;;;;;8364198;28;20007;-47
2022/01/16 21:47:24;;;;;;;;;;;15.40;33.70;;;;;;8364520;28;19924;-49
2022/01/16 21:51:24;;;;;;;;;;;15.40;33.70;;;;;;8364260;28;19920;-48
2022/01/16 21:55:26;;;;;;;;;;;15.40;33.80;;;;;;8363440;28;19925;-48
2022/01/16 21:59:27;;;;;;;;;;;15.40;33.80;;;;;;8363720;28;20015;-48
2022/01/16 22:03:27;;;;;;;;;;;15.50;33.90;;;;;;8363428;28;19916;-48
2022/01/16 22:07:28;;;;;;;;;;;15.50;33.80;;;;;;8369040;28;19924;-48
2022/01/16 22:11:31;;;;;;;;;;;15.50;33.80;;;;;;8396780;28;19924;-47
2022/01/16 22:15:32;;;;;;;;;;;15.50;33.80;;;;;;8396592;28;19925;-48
2022/01/16 22:19:32;;;;;;;;;;;15.60;33.80;;;;;;8396286;28;19913;-50
2022/01/16 22:23:37;;;;;;;;;;;15.60;33.80;;;;;;8396547;28;19962;-48
2022/01/16 22:27:37;;;;;;;;;;;15.60;33.80;;;;;;8396179;28;19994;-49
2022/01/16 22:31:38;;;;;;;;;;;15.60;33.80;;;;;;8395713;28;19920;-49
2022/01/16 22:35:38;;;;;;;;;;;15.60;33.70;;;;;;8396161;28;20271;-49
2022/01/16 22:39:42;;;;;;;;;;;15.60;33.70;;;;;;8396316;28;19917;-48
2022/01/16 22:43:42;;;;;;;;;;;15.60;33.70;;;;;;8395680;28;19966;-50
2022/01/16 22:47:42;;;;;;;;;;;15.70;33.70;;;;;;8395894;28;19920;-49
2022/01/16 22:51:43;;;;;;;;;;;15.60;33.70;;;;;;8395866;28;20297;-48
2022/01/16 22:55:44;;;;;;;;;;;15.60;33.80;;;;;;8395291;28;19931;-49
2022/01/16 22:59:44;;;;;;;;;;;15.60;34.30;;;;;;8396193;28;20362;-49
2022/01/16 23:03:44;;;;;;;;;;;15.60;33.70;;;;;;8337664;28;19921;-48
2022/01/16 23:07:45;;;;;;;;;;;15.60;33.70;;;;;;8351620;28;19921;-49
2022/01/16 23:11:48;;;;;;;;;;;15.60;33.70;;;;;;8362453;28;19916;-50
2022/01/16 23:15:48;;;;;;;;;;;15.60;33.70;;;;;;8362006;28;20392;-47
2022/01/16 23:19:49;;;;;;;;;;;15.60;33.80;;;;;;8362623;28;19913;-51
2022/01/16 23:23:49;;;;;;;;;;;15.60;33.80;;;;;;8362560;28;19925;-50
2022/01/16 23:27:50;;;;;;;;;;;15.60;33.80;;;;;;8361954;28;19921;-47
2022/01/16 23:31:50;;;;;;;;;;;15.60;33.90;;;;;;8362321;28;19970;-47
2022/01/16 23:35:50;;;;;;;;;;;15.60;33.90;;;;;;8362128;28;19925;-47
2022/01/16 23:39:51;;;;;;;;;;;15.50;33.80;;;;;;8361774;28;19917;-50
2022/01/16 23:43:51;;;;;;;;;;;15.60;33.90;;;;;;8362325;28;20297;-47
2022/01/16 23:47:52;;;;;;;;;;;15.60;33.90;;;;;;8361895;28;19924;-48
2022/01/16 23:51:52;;;;;;;;;;;15.60;33.90;;;;;;8362899;28;19920;-47
2022/01/16 23:55:53;;;;;;;;;;;15.60;33.90;;;;;;8367555;28;20011;-49
2022/01/16 23:59:53;;;;;;;;;;;15.60;34.50;;;;;;8367825;28;19913;-48
